Aérodrome :
LOGIN :

S'inscrire | Disclaimer

   EN    FR    IT 

 










Légende :    VFR   VFR Marginal   IFR   IFR Intensif   IFR Très Intensif
Visi : 
Plafond : 
>= 8 km
>= 3000ft
5 à 8 km
1000 à 3000 ft
1500m à 5 km
500 à 1000 ft
800 à 1500m
200 à 500 ft
< 800m
< 200 ft
Symboles :   Orages  Brouillard  Fortes neiges  Fortes précipitations  Vent > 20 kt
SIGMETs :   Divers  Orages  Givrage  Turbulence  Onde Orograph.  Cendres Volcan.







- Altitude de l'aérodrome : 83 ft
- Code IATA : LHR
- Voir les cartes d'approche


EGLL - London Heathrow

DERNIER METAR :
  • 130350Z AUTO 21008KT 9999 NCD 08/07 Q1014 NOSIG

METARs EXPIRÉS :
  • 130320Z AUTO 21009KT 9999 NCD 08/07 Q1014 NOSIG
  • 130250Z AUTO 22007KT 9999 NCD 09/07 Q1014 NOSIG
  • 130220Z AUTO 23009KT 9999 NCD 09/07 Q1014 NOSIG
  • 130150Z AUTO 22007KT 9999 NCD 09/06 Q1013 NOSIG
  • 130120Z AUTO 21007KT 9999 NCD 09/06 Q1013 NOSIG

TAF TAF EGLL
Valide du 13 à 00h jusqu'au 14 à 06h UTC


122258Z 1300/1406 19010KT 9999 SCT030
BECMG 1300/1303 25010KT
PROB30
TEMPO 1300/1302 7000 SHRA
BECMG 1316/1319 19008KT
Pas de NOTAMs connus pour ce terrain.



MET'MAP, la Météo Aéronautique d'un coup d'oeil ! - Copyright ORBIFLY Décembre 2007 - Disclaimer

ORBIFLY MET'MAP TEAM :

Programmation & Développement : Alexandra Zaïnal
Conception & Développement : Baudouin d'Aumeries
Co-Programmation & Développement : Marc-Olivier Méhu
Soutien technique & logistique : Manuel Goepfert

Contact : metmap@orbifly.com




SOURCES & CREDITS :

   NOAA